sensor_id;sensor_type;location;lat;lon;timestamp;temperature;humidity
6252;DHT22;3159;52.414;9.784;2024-01-16T00:00:23;1.80;99.90
6252;DHT22;3159;52.414;9.784;2024-01-16T00:02:50;1.80;99.90
6252;DHT22;3159;52.414;9.784;2024-01-16T00:05:18;1.80;99.90
6252;DHT22;3159;52.414;9.784;2024-01-16T00:07:45;1.80;99.90
6252;DHT22;3159;52.414;9.784;2024-01-16T00:10:12;1.90;99.90
6252;DHT22;3159;52.414;9.784;2024-01-16T00:12:38;1.80;99.90
6252;DHT22;3159;52.414;9.784;2024-01-16T00:15:07;1.80;99.90
6252;DHT22;3159;52.414;9.784;2024-01-16T00:17:34;1.80;99.90
6252;DHT22;3159;52.414;9.784;2024-01-16T00:20:01;1.70;99.90
6252;DHT22;3159;52.414;9.784;2024-01-16T00:22:32;1.80;99.90
6252;DHT22;3159;52.414;9.784;2024-01-16T00:24:58;1.70;99.90
6252;DHT22;3159;52.414;9.784;2024-01-16T00:27:25;1.70;99.90
6252;DHT22;3159;52.414;9.784;2024-01-16T00:29:52;1.70;99.90
6252;DHT22;3159;52.414;9.784;2024-01-16T00:32:19;1.70;99.90
6252;DHT22;3159;52.414;9.784;2024-01-16T00:34:46;1.70;99.90
6252;DHT22;3159;52.414;9.784;2024-01-16T00:37:13;1.70;99.90
6252;DHT22;3159;52.414;9.784;2024-01-16T00:39:41;1.60;99.90
6252;DHT22;3159;52.414;9.784;2024-01-16T00:42:08;1.60;99.90
6252;DHT22;3159;52.414;9.784;2024-01-16T00:44:35;1.70;99.90
6252;DHT22;3159;52.414;9.784;2024-01-16T00:47:01;1.70;99.90
6252;DHT22;3159;52.414;9.784;2024-01-16T00:49:30;1.60;99.90
6252;DHT22;3159;52.414;9.784;2024-01-16T00:51:57;1.60;99.90
6252;DHT22;3159;52.414;9.784;2024-01-16T00:54:24;1.70;99.90
6252;DHT22;3159;52.414;9.784;2024-01-16T00:56:52;1.70;99.90
6252;DHT22;3159;52.414;9.784;2024-01-16T00:59:21;1.70;99.90
6252;DHT22;3159;52.414;9.784;2024-01-16T01:01:47;1.50;99.90
6252;DHT22;3159;52.414;9.784;2024-01-16T01:04:14;1.60;99.90
6252;DHT22;3159;52.414;9.784;2024-01-16T01:06:41;1.70;99.90
6252;DHT22;3159;52.414;9.784;2024-01-16T01:09:08;1.60;99.90
6252;DHT22;3159;52.414;9.784;2024-01-16T01:11:37;1.70;99.90
6252;DHT22;3159;52.414;9.784;2024-01-16T01:14:05;1.60;99.90
6252;DHT22;3159;52.414;9.784;2024-01-16T01:16:32;1.60;99.90
6252;DHT22;3159;52.414;9.784;2024-01-16T01:18:59;1.60;99.90
6252;DHT22;3159;52.414;9.784;2024-01-16T01:21:26;1.60;99.90
6252;DHT22;3159;52.414;9.784;2024-01-16T01:23:53;1.60;99.90
6252;DHT22;3159;52.414;9.784;2024-01-16T01:26:19;1.60;99.90
6252;DHT22;3159;52.414;9.784;2024-01-16T01:28:47;1.60;99.90
6252;DHT22;3159;52.414;9.784;2024-01-16T01:31:15;1.60;99.90
6252;DHT22;3159;52.414;9.784;2024-01-16T01:33:42;1.70;99.90
6252;DHT22;3159;52.414;9.784;2024-01-16T01:36:09;1.60;99.90
6252;DHT22;3159;52.414;9.784;2024-01-16T01:38:36;1.70;99.90
6252;DHT22;3159;52.414;9.784;2024-01-16T01:41:03;1.60;99.90
6252;DHT22;3159;52.414;9.784;2024-01-16T01:43:30;1.70;99.90
6252;DHT22;3159;52.414;9.784;2024-01-16T01:46:12;1.60;99.90
6252;DHT22;3159;52.414;9.784;2024-01-16T01:48:42;1.60;99.90
6252;DHT22;3159;52.414;9.784;2024-01-16T01:51:09;1.70;99.90
6252;DHT22;3159;52.414;9.784;2024-01-16T01:53:38;1.60;99.90
6252;DHT22;3159;52.414;9.784;2024-01-16T01:56:08;1.70;99.90
6252;DHT22;3159;52.414;9.784;2024-01-16T01:58:36;1.60;99.90
6252;DHT22;3159;52.414;9.784;2024-01-16T02:01:05;1.60;99.90
6252;DHT22;3159;52.414;9.784;2024-01-16T02:03:38;1.60;99.90
6252;DHT22;3159;52.414;9.784;2024-01-16T02:06:08;1.60;99.90
6252;DHT22;3159;52.414;9.784;2024-01-16T02:08:35;1.50;99.90
6252;DHT22;3159;52.414;9.784;2024-01-16T02:11:02;1.40;99.90
6252;DHT22;3159;52.414;9.784;2024-01-16T02:13:29;1.40;99.90
6252;DHT22;3159;52.414;9.784;2024-01-16T02:15:56;1.40;99.90
6252;DHT22;3159;52.414;9.784;2024-01-16T02:18:23;1.40;99.90
6252;DHT22;3159;52.414;9.784;2024-01-16T02:20:50;1.40;99.90
6252;DHT22;3159;52.414;9.784;2024-01-16T02:23:25;1.40;99.90
6252;DHT22;3159;52.414;9.784;2024-01-16T02:25:53;1.50;99.90
6252;DHT22;3159;52.414;9.784;2024-01-16T02:28:20;1.40;99.90
6252;DHT22;3159;52.414;9.784;2024-01-16T02:30:47;1.50;99.90
6252;DHT22;3159;52.414;9.784;2024-01-16T02:33:14;1.50;99.90
6252;DHT22;3159;52.414;9.784;2024-01-16T02:35:41;1.40;99.90
6252;DHT22;3159;52.414;9.784;2024-01-16T02:38:07;1.40;99.90
6252;DHT22;3159;52.414;9.784;2024-01-16T02:40:35;1.40;99.90
6252;DHT22;3159;52.414;9.784;2024-01-16T02:43:02;1.50;99.90
6252;DHT22;3159;52.414;9.784;2024-01-16T02:45:29;1.30;99.90
6252;DHT22;3159;52.414;9.784;2024-01-16T02:47:56;1.30;99.90
6252;DHT22;3159;52.414;9.784;2024-01-16T02:50:23;1.30;99.90
6252;DHT22;3159;52.414;9.784;2024-01-16T02:52:50;1.30;99.90
6252;DHT22;3159;52.414;9.784;2024-01-16T02:55:16;1.30;99.90
6252;DHT22;3159;52.414;9.784;2024-01-16T02:57:44;1.30;99.90
6252;DHT22;3159;52.414;9.784;2024-01-16T03:00:12;1.30;99.90
6252;DHT22;3159;52.414;9.784;2024-01-16T03:02:39;1.20;99.90
6252;DHT22;3159;52.414;9.784;2024-01-16T03:05:06;1.30;99.90
6252;DHT22;3159;52.414;9.784;2024-01-16T03:07:33;1.40;99.90
6252;DHT22;3159;52.414;9.784;2024-01-16T03:10:00;1.20;99.90
6252;DHT22;3159;52.414;9.784;2024-01-16T03:12:27;1.20;99.90
6252;DHT22;3159;52.414;9.784;2024-01-16T03:14:55;1.20;99.90
6252;DHT22;3159;52.414;9.784;2024-01-16T03:17:22;1.20;99.90
6252;DHT22;3159;52.414;9.784;2024-01-16T03:19:49;1.30;99.90
6252;DHT22;3159;52.414;9.784;2024-01-16T03:22:16;1.40;99.90
6252;DHT22;3159;52.414;9.784;2024-01-16T03:24:43;1.40;99.90
6252;DHT22;3159;52.414;9.784;2024-01-16T03:27:10;1.30;99.90
6252;DHT22;3159;52.414;9.784;2024-01-16T03:29:37;1.30;99.90
6252;DHT22;3159;52.414;9.784;2024-01-16T03:32:05;1.30;99.90
6252;DHT22;3159;52.414;9.784;2024-01-16T03:34:32;1.40;99.90
6252;DHT22;3159;52.414;9.784;2024-01-16T03:36:59;1.40;99.90
6252;DHT22;3159;52.414;9.784;2024-01-16T03:39:26;1.20;99.90
6252;DHT22;3159;52.414;9.784;2024-01-16T03:41:53;1.30;99.90
6252;DHT22;3159;52.414;9.784;2024-01-16T03:44:19;1.30;99.90
6252;DHT22;3159;52.414;9.784;2024-01-16T03:46:46;1.30;99.90
6252;DHT22;3159;52.414;9.784;2024-01-16T03:49:14;1.10;99.90
6252;DHT22;3159;52.414;9.784;2024-01-16T03:51:41;1.10;99.90
6252;DHT22;3159;52.414;9.784;2024-01-16T03:54:11;1.10;99.90
6252;DHT22;3159;52.414;9.784;2024-01-16T03:56:38;1.20;99.90
6252;DHT22;3159;52.414;9.784;2024-01-16T03:59:05;1.20;99.90
6252;DHT22;3159;52.414;9.784;2024-01-16T04:01:32;1.30;99.90
6252;DHT22;3159;52.414;9.784;2024-01-16T04:03:59;1.30;99.90
6252;DHT22;3159;52.414;9.784;2024-01-16T04:06:27;1.30;99.90
6252;DHT22;3159;52.414;9.784;2024-01-16T04:08:55;1.20;99.90
6252;DHT22;3159;52.414;9.784;2024-01-16T04:11:22;1.30;99.90
6252;DHT22;3159;52.414;9.784;2024-01-16T04:13:49;1.10;99.90
6252;DHT22;3159;52.414;9.784;2024-01-16T04:16:16;1.20;99.90
6252;DHT22;3159;52.414;9.784;2024-01-16T04:18:43;1.10;99.90
6252;DHT22;3159;52.414;9.784;2024-01-16T04:21:10;1.10;99.90
6252;DHT22;3159;52.414;9.784;2024-01-16T04:23:38;1.00;99.90
6252;DHT22;3159;52.414;9.784;2024-01-16T04:26:05;1.10;99.90
6252;DHT22;3159;52.414;9.784;2024-01-16T04:28:33;1.10;99.90
6252;DHT22;3159;52.414;9.784;2024-01-16T04:31:00;1.00;99.90
6252;DHT22;3159;52.414;9.784;2024-01-16T04:33:27;0.90;99.90
6252;DHT22;3159;52.414;9.784;2024-01-16T04:35:54;1.00;99.90
6252;DHT22;3159;52.414;9.784;2024-01-16T04:38:21;1.10;99.90
6252;DHT22;3159;52.414;9.784;2024-01-16T04:40:50;1.20;99.90
6252;DHT22;3159;52.414;9.784;2024-01-16T04:43:17;1.30;99.90
6252;DHT22;3159;52.414;9.784;2024-01-16T04:45:44;1.20;99.90
6252;DHT22;3159;52.414;9.784;2024-01-16T04:48:11;1.10;99.90
6252;DHT22;3159;52.414;9.784;2024-01-16T04:50:38;1.10;99.90
6252;DHT22;3159;52.414;9.784;2024-01-16T04:53:05;1.10;99.90
6252;DHT22;3159;52.414;9.784;2024-01-16T04:55:31;1.10;99.90
6252;DHT22;3159;52.414;9.784;2024-01-16T04:58:00;1.10;99.90
6252;DHT22;3159;52.414;9.784;2024-01-16T05:00:26;1.30;99.90
6252;DHT22;3159;52.414;9.784;2024-01-16T05:02:53;1.20;99.90
6252;DHT22;3159;52.414;9.784;2024-01-16T05:05:20;1.20;99.90
6252;DHT22;3159;52.414;9.784;2024-01-16T05:07:47;1.10;99.90
6252;DHT22;3159;52.414;9.784;2024-01-16T05:10:14;1.20;99.90
6252;DHT22;3159;52.414;9.784;2024-01-16T05:12:41;1.10;99.90
6252;DHT22;3159;52.414;9.784;2024-01-16T05:15:10;1.10;99.90
6252;DHT22;3159;52.414;9.784;2024-01-16T05:17:38;1.10;99.90
6252;DHT22;3159;52.414;9.784;2024-01-16T05:20:06;1.00;99.90
6252;DHT22;3159;52.414;9.784;2024-01-16T05:22:32;0.90;99.90
6252;DHT22;3159;52.414;9.784;2024-01-16T05:24:59;0.90;99.90
6252;DHT22;3159;52.414;9.784;2024-01-16T05:27:26;1.00;99.90
6252;DHT22;3159;52.414;9.784;2024-01-16T05:29:53;0.90;99.90
6252;DHT22;3159;52.414;9.784;2024-01-16T05:32:21;1.00;99.90
6252;DHT22;3159;52.414;9.784;2024-01-16T05:34:48;1.00;99.90
6252;DHT22;3159;52.414;9.784;2024-01-16T05:37:15;0.90;99.90
6252;DHT22;3159;52.414;9.784;2024-01-16T05:39:42;1.00;99.90
6252;DHT22;3159;52.414;9.784;2024-01-16T05:42:09;1.10;99.90
6252;DHT22;3159;52.414;9.784;2024-01-16T05:44:36;0.90;99.90
6252;DHT22;3159;52.414;9.784;2024-01-16T05:47:03;0.80;99.90
6252;DHT22;3159;52.414;9.784;2024-01-16T05:49:32;0.80;99.90
6252;DHT22;3159;52.414;9.784;2024-01-16T05:51:59;0.80;99.90
6252;DHT22;3159;52.414;9.784;2024-01-16T05:54:26;0.90;99.90
6252;DHT22;3159;52.414;9.784;2024-01-16T05:56:54;0.80;99.90
6252;DHT22;3159;52.414;9.784;2024-01-16T05:59:20;0.90;99.90
6252;DHT22;3159;52.414;9.784;2024-01-16T06:01:47;0.90;99.90
6252;DHT22;3159;52.414;9.784;2024-01-16T06:04:14;0.90;99.90
6252;DHT22;3159;52.414;9.784;2024-01-16T06:06:43;0.90;99.90
6252;DHT22;3159;52.414;9.784;2024-01-16T06:09:12;0.90;99.90
6252;DHT22;3159;52.414;9.784;2024-01-16T06:11:39;0.90;99.90
6252;DHT22;3159;52.414;9.784;2024-01-16T06:14:07;0.90;99.90
6252;DHT22;3159;52.414;9.784;2024-01-16T06:16:34;0.80;99.90
6252;DHT22;3159;52.414;9.784;2024-01-16T06:19:01;0.90;99.90
6252;DHT22;3159;52.414;9.784;2024-01-16T06:21:28;0.90;99.90
6252;DHT22;3159;52.414;9.784;2024-01-16T06:23:56;0.80;99.90
6252;DHT22;3159;52.414;9.784;2024-01-16T06:26:23;0.80;99.90
6252;DHT22;3159;52.414;9.784;2024-01-16T06:28:50;0.90;99.90
6252;DHT22;3159;52.414;9.784;2024-01-16T06:31:17;0.90;99.90
6252;DHT22;3159;52.414;9.784;2024-01-16T06:33:44;0.90;99.90
6252;DHT22;3159;52.414;9.784;2024-01-16T06:36:11;0.90;99.90
6252;DHT22;3159;52.414;9.784;2024-01-16T06:38:38;0.80;99.90
6252;DHT22;3159;52.414;9.784;2024-01-16T06:41:07;0.80;99.90
6252;DHT22;3159;52.414;9.784;2024-01-16T06:43:34;0.80;99.90
6252;DHT22;3159;52.414;9.784;2024-01-16T06:46:01;0.80;99.90
6252;DHT22;3159;52.414;9.784;2024-01-16T06:48:28;1.00;99.90
6252;DHT22;3159;52.414;9.784;2024-01-16T06:50:55;0.90;99.90
6252;DHT22;3159;52.414;9.784;2024-01-16T06:53:22;0.90;99.90
6252;DHT22;3159;52.414;9.784;2024-01-16T06:55:49;0.80;99.90
6252;DHT22;3159;52.414;9.784;2024-01-16T06:58:17;0.90;99.90
6252;DHT22;3159;52.414;9.784;2024-01-16T07:00:44;1.00;99.90
6252;DHT22;3159;52.414;9.784;2024-01-16T07:03:12;0.90;99.90
6252;DHT22;3159;52.414;9.784;2024-01-16T07:05:39;0.90;99.90
6252;DHT22;3159;52.414;9.784;2024-01-16T07:08:07;0.90;99.90
6252;DHT22;3159;52.414;9.784;2024-01-16T07:10:33;1.00;99.90
6252;DHT22;3159;52.414;9.784;2024-01-16T07:13:01;1.00;99.90
6252;DHT22;3159;52.414;9.784;2024-01-16T07:15:29;1.00;99.90
6252;DHT22;3159;52.414;9.784;2024-01-16T07:17:56;1.00;99.90
6252;DHT22;3159;52.414;9.784;2024-01-16T07:20:23;1.00;99.90
6252;DHT22;3159;52.414;9.784;2024-01-16T07:22:50;0.90;99.90
6252;DHT22;3159;52.414;9.784;2024-01-16T07:25:17;0.90;99.90
6252;DHT22;3159;52.414;9.784;2024-01-16T07:27:44;0.90;99.90
6252;DHT22;3159;52.414;9.784;2024-01-16T07:30:14;1.00;99.90
6252;DHT22;3159;52.414;9.784;2024-01-16T07:32:42;1.00;99.90
6252;DHT22;3159;52.414;9.784;2024-01-16T07:35:10;1.00;99.90
6252;DHT22;3159;52.414;9.784;2024-01-16T07:37:37;1.00;99.90
6252;DHT22;3159;52.414;9.784;2024-01-16T07:40:05;1.00;99.90
6252;DHT22;3159;52.414;9.784;2024-01-16T07:42:35;1.00;99.90
6252;DHT22;3159;52.414;9.784;2024-01-16T07:45:02;1.10;99.90
6252;DHT22;3159;52.414;9.784;2024-01-16T07:47:30;1.10;99.90
6252;DHT22;3159;52.414;9.784;2024-01-16T07:49:58;1.10;99.90
6252;DHT22;3159;52.414;9.784;2024-01-16T07:52:27;1.10;99.90
6252;DHT22;3159;52.414;9.784;2024-01-16T07:54:54;1.10;99.90
6252;DHT22;3159;52.414;9.784;2024-01-16T07:57:21;1.10;99.90
6252;DHT22;3159;52.414;9.784;2024-01-16T07:59:48;1.10;99.90
6252;DHT22;3159;52.414;9.784;2024-01-16T08:02:15;1.00;99.90
6252;DHT22;3159;52.414;9.784;2024-01-16T08:04:42;1.00;99.90
6252;DHT22;3159;52.414;9.784;2024-01-16T08:07:11;1.20;99.90
6252;DHT22;3159;52.414;9.784;2024-01-16T08:09:37;1.20;99.90
6252;DHT22;3159;52.414;9.784;2024-01-16T08:12:05;1.20;99.90
6252;DHT22;3159;52.414;9.784;2024-01-16T08:14:33;1.20;99.90
6252;DHT22;3159;52.414;9.784;2024-01-16T08:17:00;1.20;99.90
6252;DHT22;3159;52.414;9.784;2024-01-16T08:19:27;1.20;99.90
6252;DHT22;3159;52.414;9.784;2024-01-16T08:21:53;1.10;99.90
6252;DHT22;3159;52.414;9.784;2024-01-16T08:24:22;1.10;99.90
6252;DHT22;3159;52.414;9.784;2024-01-16T08:26:49;1.20;99.90
6252;DHT22;3159;52.414;9.784;2024-01-16T08:29:16;1.20;99.90
6252;DHT22;3159;52.414;9.784;2024-01-16T08:31:43;1.20;99.90
6252;DHT22;3159;52.414;9.784;2024-01-16T08:34:10;1.20;99.90
6252;DHT22;3159;52.414;9.784;2024-01-16T08:36:37;1.30;99.90
6252;DHT22;3159;52.414;9.784;2024-01-16T08:39:04;1.30;99.90
6252;DHT22;3159;52.414;9.784;2024-01-16T08:41:32;1.30;99.90
6252;DHT22;3159;52.414;9.784;2024-01-16T08:43:59;1.30;99.90
6252;DHT22;3159;52.414;9.784;2024-01-16T08:46:26;1.30;99.90
6252;DHT22;3159;52.414;9.784;2024-01-16T08:48:53;1.40;99.90
6252;DHT22;3159;52.414;9.784;2024-01-16T08:51:20;1.40;99.90
6252;DHT22;3159;52.414;9.784;2024-01-16T08:53:47;1.30;99.90
6252;DHT22;3159;52.414;9.784;2024-01-16T08:56:14;1.40;99.90
6252;DHT22;3159;52.414;9.784;2024-01-16T08:58:44;1.40;99.90
6252;DHT22;3159;52.414;9.784;2024-01-16T09:01:11;1.40;99.90
6252;DHT22;3159;52.414;9.784;2024-01-16T09:03:38;1.40;99.90
6252;DHT22;3159;52.414;9.784;2024-01-16T09:06:05;1.50;99.90
6252;DHT22;3159;52.414;9.784;2024-01-16T09:08:32;1.40;99.90
6252;DHT22;3159;52.414;9.784;2024-01-16T09:10:59;1.40;99.90
6252;DHT22;3159;52.414;9.784;2024-01-16T09:13:26;1.50;99.90
6252;DHT22;3159;52.414;9.784;2024-01-16T09:15:54;1.50;99.90
6252;DHT22;3159;52.414;9.784;2024-01-16T09:18:21;1.60;99.90
6252;DHT22;3159;52.414;9.784;2024-01-16T09:20:48;1.70;99.90
6252;DHT22;3159;52.414;9.784;2024-01-16T09:23:15;1.80;99.90
6252;DHT22;3159;52.414;9.784;2024-01-16T09:25:41;1.80;99.90
6252;DHT22;3159;52.414;9.784;2024-01-16T09:28:08;1.90;99.90
6252;DHT22;3159;52.414;9.784;2024-01-16T09:30:35;2.00;99.90
6252;DHT22;3159;52.414;9.784;2024-01-16T09:33:04;2.00;99.90
6252;DHT22;3159;52.414;9.784;2024-01-16T09:35:32;2.00;99.90
6252;DHT22;3159;52.414;9.784;2024-01-16T09:38:00;2.00;99.90
6252;DHT22;3159;52.414;9.784;2024-01-16T09:40:27;1.90;99.90
6252;DHT22;3159;52.414;9.784;2024-01-16T09:42:54;1.80;99.90
6252;DHT22;3159;52.414;9.784;2024-01-16T09:45:21;1.80;99.90
6252;DHT22;3159;52.414;9.784;2024-01-16T09:47:50;1.90;99.90
6252;DHT22;3159;52.414;9.784;2024-01-16T09:50:19;2.10;99.90
6252;DHT22;3159;52.414;9.784;2024-01-16T09:52:46;2.30;99.90
6252;DHT22;3159;52.414;9.784;2024-01-16T09:55:13;2.10;99.90
6252;DHT22;3159;52.414;9.784;2024-01-16T09:57:41;2.10;99.90
6252;DHT22;3159;52.414;9.784;2024-01-16T10:00:09;2.10;99.90
6252;DHT22;3159;52.414;9.784;2024-01-16T10:02:38;1.90;99.90
6252;DHT22;3159;52.414;9.784;2024-01-16T10:05:06;1.80;99.90
6252;DHT22;3159;52.414;9.784;2024-01-16T10:07:36;1.80;99.90
6252;DHT22;3159;52.414;9.784;2024-01-16T10:10:04;1.90;99.90
6252;DHT22;3159;52.414;9.784;2024-01-16T10:12:31;1.90;99.90
6252;DHT22;3159;52.414;9.784;2024-01-16T10:14:58;2.00;99.90
6252;DHT22;3159;52.414;9.784;2024-01-16T10:17:36;2.20;99.90
6252;DHT22;3159;52.414;9.784;2024-01-16T10:20:04;2.20;99.90
6252;DHT22;3159;52.414;9.784;2024-01-16T10:22:31;2.10;99.90
6252;DHT22;3159;52.414;9.784;2024-01-16T10:25:06;2.20;99.90
6252;DHT22;3159;52.414;9.784;2024-01-16T10:27:34;2.10;99.90
6252;DHT22;3159;52.414;9.784;2024-01-16T10:30:02;2.30;99.90
6252;DHT22;3159;52.414;9.784;2024-01-16T10:32:30;2.20;99.90
6252;DHT22;3159;52.414;9.784;2024-01-16T10:35:07;2.30;99.90
6252;DHT22;3159;52.414;9.784;2024-01-16T10:37:42;2.30;99.90
6252;DHT22;3159;52.414;9.784;2024-01-16T10:40:14;2.20;99.90
6252;DHT22;3159;52.414;9.784;2024-01-16T10:42:41;2.30;99.90
6252;DHT22;3159;52.414;9.784;2024-01-16T10:45:11;2.30;99.90
6252;DHT22;3159;52.414;9.784;2024-01-16T10:47:42;2.30;99.90
6252;DHT22;3159;52.414;9.784;2024-01-16T10:50:09;2.10;99.90
6252;DHT22;3159;52.414;9.784;2024-01-16T10:52:42;2.20;99.90
6252;DHT22;3159;52.414;9.784;2024-01-16T10:55:15;2.20;99.90
6252;DHT22;3159;52.414;9.784;2024-01-16T10:57:47;2.10;99.90
6252;DHT22;3159;52.414;9.784;2024-01-16T11:00:18;2.20;99.90
6252;DHT22;3159;52.414;9.784;2024-01-16T11:02:50;2.20;99.90
6252;DHT22;3159;52.414;9.784;2024-01-16T11:05:18;2.20;99.90
6252;DHT22;3159;52.414;9.784;2024-01-16T11:07:46;2.20;99.90
6252;DHT22;3159;52.414;9.784;2024-01-16T11:10:16;2.20;99.90
6252;DHT22;3159;52.414;9.784;2024-01-16T11:12:45;2.30;99.90
6252;DHT22;3159;52.414;9.784;2024-01-16T11:15:12;2.30;99.90
6252;DHT22;3159;52.414;9.784;2024-01-16T11:17:40;2.40;99.90
6252;DHT22;3159;52.414;9.784;2024-01-16T11:20:11;2.40;99.90
6252;DHT22;3159;52.414;9.784;2024-01-16T11:22:41;2.30;99.90
6252;DHT22;3159;52.414;9.784;2024-01-16T11:25:09;2.30;99.90
6252;DHT22;3159;52.414;9.784;2024-01-16T11:27:38;2.10;99.90
6252;DHT22;3159;52.414;9.784;2024-01-16T11:30:06;2.20;99.90
6252;DHT22;3159;52.414;9.784;2024-01-16T11:32:34;2.20;99.90
6252;DHT22;3159;52.414;9.784;2024-01-16T11:35:01;2.30;99.90
6252;DHT22;3159;52.414;9.784;2024-01-16T11:37:29;2.40;99.90
6252;DHT22;3159;52.414;9.784;2024-01-16T11:40:34;2.40;99.90
6252;DHT22;3159;52.414;9.784;2024-01-16T11:43:35;2.40;99.90
6252;DHT22;3159;52.414;9.784;2024-01-16T11:46:03;2.20;99.90
6252;DHT22;3159;52.414;9.784;2024-01-16T11:48:30;2.20;99.90
6252;DHT22;3159;52.414;9.784;2024-01-16T11:50:57;2.10;99.90
6252;DHT22;3159;52.414;9.784;2024-01-16T11:53:34;2.10;99.90
6252;DHT22;3159;52.414;9.784;2024-01-16T11:59:18;2.10;99.90
6252;DHT22;3159;52.414;9.784;2024-01-16T12:01:57;2.10;99.90
6252;DHT22;3159;52.414;9.784;2024-01-16T12:04:24;2.10;99.90
6252;DHT22;3159;52.414;9.784;2024-01-16T12:06:59;2.00;99.90
6252;DHT22;3159;52.414;9.784;2024-01-16T12:09:28;2.00;99.90
6252;DHT22;3159;52.414;9.784;2024-01-16T12:11:58;2.00;99.90
6252;DHT22;3159;52.414;9.784;2024-01-16T12:14:28;2.00;99.90
6252;DHT22;3159;52.414;9.784;2024-01-16T12:17:08;1.90;99.90
6252;DHT22;3159;52.414;9.784;2024-01-16T12:19:36;2.00;99.90
6252;DHT22;3159;52.414;9.784;2024-01-16T12:22:08;2.00;99.90
6252;DHT22;3159;52.414;9.784;2024-01-16T12:24:35;2.00;99.90
6252;DHT22;3159;52.414;9.784;2024-01-16T12:27:02;2.00;99.90
6252;DHT22;3159;52.414;9.784;2024-01-16T12:29:31;2.00;99.90
6252;DHT22;3159;52.414;9.784;2024-01-16T12:32:08;2.00;99.90
6252;DHT22;3159;52.414;9.784;2024-01-16T12:34:35;2.00;99.90
6252;DHT22;3159;52.414;9.784;2024-01-16T12:37:09;2.00;99.90
6252;DHT22;3159;52.414;9.784;2024-01-16T12:39:37;2.10;99.90
6252;DHT22;3159;52.414;9.784;2024-01-16T12:42:04;2.10;99.90
6252;DHT22;3159;52.414;9.784;2024-01-16T12:44:32;2.10;99.90
6252;DHT22;3159;52.414;9.784;2024-01-16T12:46:59;2.10;99.90
6252;DHT22;3159;52.414;9.784;2024-01-16T12:49:27;2.20;99.90
6252;DHT22;3159;52.414;9.784;2024-01-16T12:52:16;2.20;99.90
6252;DHT22;3159;52.414;9.784;2024-01-16T12:54:43;2.00;99.90
6252;DHT22;3159;52.414;9.784;2024-01-16T12:57:10;2.00;99.90
6252;DHT22;3159;52.414;9.784;2024-01-16T12:59:44;1.90;99.90
6252;DHT22;3159;52.414;9.784;2024-01-16T13:02:19;2.00;99.90
6252;DHT22;3159;52.414;9.784;2024-01-16T13:04:47;2.00;99.90
6252;DHT22;3159;52.414;9.784;2024-01-16T13:07:16;2.00;99.90
6252;DHT22;3159;52.414;9.784;2024-01-16T13:09:43;2.10;99.90
6252;DHT22;3159;52.414;9.784;2024-01-16T13:12:19;2.10;99.90
6252;DHT22;3159;52.414;9.784;2024-01-16T13:14:48;2.00;99.90
6252;DHT22;3159;52.414;9.784;2024-01-16T13:17:14;2.00;99.90
6252;DHT22;3159;52.414;9.784;2024-01-16T13:19:41;2.00;99.90
6252;DHT22;3159;52.414;9.784;2024-01-16T13:22:08;2.00;99.90
6252;DHT22;3159;52.414;9.784;2024-01-16T13:24:35;2.00;99.90
6252;DHT22;3159;52.414;9.784;2024-01-16T13:27:02;2.10;99.90
6252;DHT22;3159;52.414;9.784;2024-01-16T13:29:29;2.10;99.90
6252;DHT22;3159;52.414;9.784;2024-01-16T13:32:02;2.20;99.90
6252;DHT22;3159;52.414;9.784;2024-01-16T13:34:30;2.20;99.90
6252;DHT22;3159;52.414;9.784;2024-01-16T13:36:58;2.20;99.90
6252;DHT22;3159;52.414;9.784;2024-01-16T13:39:25;2.20;99.90
6252;DHT22;3159;52.414;9.784;2024-01-16T13:41:53;2.10;99.90
6252;DHT22;3159;52.414;9.784;2024-01-16T13:44:19;2.10;99.90
6252;DHT22;3159;52.414;9.784;2024-01-16T13:46:46;2.10;99.90
6252;DHT22;3159;52.414;9.784;2024-01-16T13:49:14;2.10;99.90
6252;DHT22;3159;52.414;9.784;2024-01-16T13:51:43;2.20;99.90
6252;DHT22;3159;52.414;9.784;2024-01-16T13:54:10;2.10;99.90
6252;DHT22;3159;52.414;9.784;2024-01-16T13:56:37;2.10;99.90
6252;DHT22;3159;52.414;9.784;2024-01-16T13:59:04;2.00;99.90
6252;DHT22;3159;52.414;9.784;2024-01-16T14:01:31;2.00;99.90
6252;DHT22;3159;52.414;9.784;2024-01-16T14:03:58;2.10;99.90
6252;DHT22;3159;52.414;9.784;2024-01-16T14:06:27;2.10;99.90
6252;DHT22;3159;52.414;9.784;2024-01-16T14:08:53;2.20;99.90
6252;DHT22;3159;52.414;9.784;2024-01-16T14:11:20;2.10;99.90
6252;DHT22;3159;52.414;9.784;2024-01-16T14:13:47;2.10;99.90
6252;DHT22;3159;52.414;9.784;2024-01-16T14:16:14;2.20;99.90
6252;DHT22;3159;52.414;9.784;2024-01-16T14:18:41;2.10;99.90
6252;DHT22;3159;52.414;9.784;2024-01-16T14:21:08;2.10;99.90
6252;DHT22;3159;52.414;9.784;2024-01-16T14:23:36;2.10;99.90
6252;DHT22;3159;52.414;9.784;2024-01-16T14:26:03;2.20;99.90
6252;DHT22;3159;52.414;9.784;2024-01-16T14:28:30;2.10;99.90
6252;DHT22;3159;52.414;9.784;2024-01-16T14:30:59;2.10;99.90
6252;DHT22;3159;52.414;9.784;2024-01-16T14:33:26;2.10;99.90
6252;DHT22;3159;52.414;9.784;2024-01-16T14:35:53;2.20;99.90
6252;DHT22;3159;52.414;9.784;2024-01-16T14:38:20;2.20;99.90
6252;DHT22;3159;52.414;9.784;2024-01-16T14:40:48;2.10;99.90
6252;DHT22;3159;52.414;9.784;2024-01-16T14:43:17;2.10;99.90
6252;DHT22;3159;52.414;9.784;2024-01-16T14:45:44;2.00;99.90
6252;DHT22;3159;52.414;9.784;2024-01-16T14:48:11;2.10;99.90
6252;DHT22;3159;52.414;9.784;2024-01-16T14:50:37;2.00;99.90
6252;DHT22;3159;52.414;9.784;2024-01-16T14:53:04;2.00;99.90
6252;DHT22;3159;52.414;9.784;2024-01-16T14:55:32;2.00;99.90
6252;DHT22;3159;52.414;9.784;2024-01-16T14:58:00;2.00;99.90
6252;DHT22;3159;52.414;9.784;2024-01-16T15:00:27;2.00;99.90
6252;DHT22;3159;52.414;9.784;2024-01-16T15:02:56;1.90;99.90
6252;DHT22;3159;52.414;9.784;2024-01-16T15:05:23;1.90;99.90
6252;DHT22;3159;52.414;9.784;2024-01-16T15:07:50;2.00;99.90
6252;DHT22;3159;52.414;9.784;2024-01-16T15:10:18;2.00;99.90
6252;DHT22;3159;52.414;9.784;2024-01-16T15:12:46;2.00;99.90
6252;DHT22;3159;52.414;9.784;2024-01-16T15:15:15;2.00;99.90
6252;DHT22;3159;52.414;9.784;2024-01-16T15:17:42;2.00;99.90
6252;DHT22;3159;52.414;9.784;2024-01-16T15:20:10;1.90;99.90
6252;DHT22;3159;52.414;9.784;2024-01-16T15:22:37;1.80;99.90
6252;DHT22;3159;52.414;9.784;2024-01-16T15:25:05;1.90;99.90
6252;DHT22;3159;52.414;9.784;2024-01-16T15:27:32;1.90;99.90
6252;DHT22;3159;52.414;9.784;2024-01-16T15:29:59;1.90;99.90
6252;DHT22;3159;52.414;9.784;2024-01-16T15:32:28;1.80;99.90
6252;DHT22;3159;52.414;9.784;2024-01-16T15:34:55;1.80;99.90
6252;DHT22;3159;52.414;9.784;2024-01-16T15:37:21;1.80;99.90
6252;DHT22;3159;52.414;9.784;2024-01-16T15:39:48;1.80;99.90
6252;DHT22;3159;52.414;9.784;2024-01-16T15:42:15;1.80;99.90
6252;DHT22;3159;52.414;9.784;2024-01-16T15:44:43;1.70;99.90
6252;DHT22;3159;52.414;9.784;2024-01-16T15:47:10;1.60;99.90
6252;DHT22;3159;52.414;9.784;2024-01-16T15:49:38;1.70;99.90
6252;DHT22;3159;52.414;9.784;2024-01-16T15:52:05;1.50;99.90
6252;DHT22;3159;52.414;9.784;2024-01-16T15:54:32;1.50;99.90
6252;DHT22;3159;52.414;9.784;2024-01-16T15:56:59;1.60;99.90
6252;DHT22;3159;52.414;9.784;2024-01-16T15:59:26;1.70;99.90
6252;DHT22;3159;52.414;9.784;2024-01-16T16:01:52;1.70;99.90
6252;DHT22;3159;52.414;9.784;2024-01-16T16:04:19;1.60;99.90
6252;DHT22;3159;52.414;9.784;2024-01-16T16:06:48;1.50;99.90
6252;DHT22;3159;52.414;9.784;2024-01-16T16:09:15;1.50;99.90
6252;DHT22;3159;52.414;9.784;2024-01-16T16:11:42;1.40;99.90
6252;DHT22;3159;52.414;9.784;2024-01-16T16:14:10;1.40;99.90
6252;DHT22;3159;52.414;9.784;2024-01-16T16:16:36;1.40;99.90
6252;DHT22;3159;52.414;9.784;2024-01-16T16:19:03;1.50;99.90
6252;DHT22;3159;52.414;9.784;2024-01-16T16:21:31;1.40;99.90
6252;DHT22;3159;52.414;9.784;2024-01-16T16:23:59;1.40;99.90